Union Star, Kentucky
Current Conditions -  °F | °C
As of 1:25 PM on Sunday 21 Dec 2014 (Local Time) from KFTK Reporting Station
Clear Clear  
Wind Chill: 37°   Ceiling: Unl
Heat Index: 41°   Visibility: 10mi
Dew Point: 28°   Wind: 6mph
Humidity: 61%   Direction: 80°E
Pressure: 30.14"   Gusts: NA
Location:  37.94°N, 86.45°W
Report Text: KFTK 211925Z AUTO 08005KT 10SM CLR 05/M02 A3014 RMK AO2
Loading
Personal Weather Stations






























Interactive Weather Map New forecast layout! Learn more

10-Day Weather Forecast

Advertisements
Track Severe Weather on mobile